Time;durP1;ratioP1;P1;durP2;ratioP2;P2;SDS_P1;SDS_P2;PMS_P1;PMS_P2;Temp;Humidity;BMP_temperature;BMP_pressure;BME280_temperature;BME280_humidity;BME280_pressure;Samples;Min_cycle;Max_cycle;Signal;HPM_P1;HPM_P2
2021/04/29 00:00:59;;;;;;;7.35;4.93;;;14.30;58.10;;;;;;5072595;28;20186;-66
2021/04/29 00:03:26;;;;;;;6.43;5.35;;;14.30;58.00;;;;;;5077830;28;20236;-66
2021/04/29 00:05:52;;;;;;;9.60;5.33;;;14.30;58.00;;;;;;5092250;28;20224;-65
2021/04/29 00:08:19;;;;;;;6.75;5.15;;;14.30;57.90;;;;;;5092436;28;20439;-66
2021/04/29 00:10:46;;;;;;;6.75;5.53;;;14.40;58.20;;;;;;5073694;28;20186;-66
2021/04/29 00:13:15;;;;;;;5.80;4.90;;;14.30;58.20;;;;;;5072392;28;20227;-66
2021/04/29 00:15:44;;;;;;;11.82;5.57;;;14.30;58.10;;;;;;5089240;28;20197;-66
2021/04/29 00:18:10;;;;;;;8.35;6.10;;;14.40;58.60;;;;;;5092671;28;20193;-66
2021/04/29 00:20:37;;;;;;;7.47;6.03;;;14.30;59.00;;;;;;5076185;28;20236;-66
2021/04/29 00:23:04;;;;;;;9.23;6.22;;;14.30;59.10;;;;;;5072627;28;20190;-67
2021/04/29 00:25:30;;;;;;;8.48;6.40;;;14.20;59.20;;;;;;5086043;28;20262;-66
2021/04/29 00:27:57;;;;;;;6.20;5.60;;;14.20;59.80;;;;;;5086374;28;20182;-65
2021/04/29 00:30:24;;;;;;;7.25;5.38;;;14.20;59.60;;;;;;5072412;28;20288;-66
2021/04/29 00:32:51;;;;;;;7.78;6.00;;;14.20;59.80;;;;;;5075840;28;20680;-67
2021/04/29 00:35:17;;;;;;;6.63;5.95;;;14.20;59.60;;;;;;5092494;28;20651;-66
2021/04/29 00:37:44;;;;;;;7.25;6.10;;;14.20;59.70;;;;;;5089477;28;20271;-66
2021/04/29 00:40:11;;;;;;;9.13;6.50;;;14.20;60.60;;;;;;5072478;28;20217;-65
2021/04/29 00:42:39;;;;;;;6.80;5.65;;;14.20;60.50;;;;;;5076464;28;20185;-66
2021/04/29 00:45:08;;;;;;;12.98;6.70;;;14.10;60.80;;;;;;5092322;28;20193;-66
2021/04/29 00:47:36;;;;;;;7.07;6.38;;;14.10;61.00;;;;;;5084649;28;20213;-66
2021/04/29 00:50:04;;;;;;;8.52;6.00;;;14.10;60.80;;;;;;5072088;28;20194;-66
2021/04/29 00:52:31;;;;;;;8.70;6.95;;;14.10;60.40;;;;;;5078238;28;20569;-66
2021/04/29 00:54:57;;;;;;;11.20;7.45;;;14.20;60.60;;;;;;5092352;28;20197;-66
2021/04/29 00:57:24;;;;;;;11.95;7.82;;;14.20;60.40;;;;;;5087218;28;20186;-66
2021/04/29 00:59:52;;;;;;;8.75;7.60;;;14.20;60.20;;;;;;5071882;28;20832;-65
2021/04/29 01:02:18;;;;;;;9.75;6.57;;;14.20;59.80;;;;;;5076558;28;20194;-66
2021/04/29 01:04:52;;;;;;;7.78;6.97;;;14.20;60.00;;;;;;5074176;28;20178;-65
2021/04/29 01:07:19;;;;;;;7.15;5.97;;;14.20;60.30;;;;;;5075582;28;20647;-66
2021/04/29 01:09:52;;;;;;;8.90;7.40;;;14.20;60.80;;;;;;5075791;28;20199;-65
2021/04/29 01:12:21;;;;;;;12.85;7.38;;;14.20;60.40;;;;;;5092459;28;20204;-67
2021/04/29 01:14:52;;;;;;;7.72;6.75;;;14.20;60.70;;;;;;5096001;28;20189;-66
2021/04/29 01:17:19;;;;;;;8.43;6.07;;;14.20;60.90;;;;;;5079441;28;20663;-66
2021/04/29 01:19:55;;;;;;;7.07;6.35;;;14.20;60.40;;;;;;5075510;28;20838;-66
2021/04/29 01:22:21;;;;;;;8.98;6.38;;;14.20;60.60;;;;;;5091100;28;20216;-66
2021/04/29 01:24:53;;;;;;;8.93;5.45;;;14.20;60.70;;;;;;5095712;28;20197;-65
2021/04/29 01:27:22;;;;;;;8.02;5.82;;;14.10;60.90;;;;;;5080351;28;20208;-66
2021/04/29 01:29:51;;;;;;;7.45;6.05;;;14.10;61.10;;;;;;5075527;28;20641;-65
2021/04/29 01:32:18;;;;;;;10.02;7.18;;;14.00;61.50;;;;;;5088968;28;20193;-66
2021/04/29 01:34:46;;;;;;;7.28;6.40;;;14.00;62.00;;;;;;5095569;28;20223;-66
2021/04/29 01:37:13;;;;;;;9.00;6.72;;;14.00;62.00;;;;;;5093067;28;20220;-68
2021/04/29 01:39:40;;;;;;;6.70;6.05;;;14.00;61.60;;;;;;5086312;28;20631;-67
2021/04/29 01:42:10;;;;;;;8.55;7.13;;;14.00;61.90;;;;;;5075260;28;20276;-68
2021/04/29 01:44:38;;;;;;;7.38;6.10;;;14.00;61.80;;;;;;5082707;28;20181;-66
2021/04/29 01:47:06;;;;;;;8.55;6.82;;;14.00;61.80;;;;;;5095385;28;20189;-66
2021/04/29 01:49:34;;;;;;;7.57;6.40;;;13.90;62.70;;;;;;5088153;28;20190;-66
2021/04/29 01:52:02;;;;;;;6.80;5.93;;;13.80;62.80;;;;;;5075094;28;20213;-66
2021/04/29 01:54:29;;;;;;;8.38;5.97;;;13.70;63.20;;;;;;5080104;28;20651;-66
2021/04/29 01:56:56;;;;;;;7.70;5.35;;;13.60;63.50;;;;;;5095005;28;20193;-66
2021/04/29 01:59:24;;;;;;;5.50;5.00;;;13.60;64.10;;;;;;5093057;28;20221;-66
2021/04/29 02:01:52;;;;;;;7.40;5.82;;;13.50;64.00;;;;;;5095075;28;20196;-66
2021/04/29 02:04:18;;;;;;;5.70;4.78;;;13.50;63.70;;;;;;5091617;28;20211;-66
2021/04/29 02:06:46;;;;;;;8.05;5.72;;;13.50;64.00;;;;;;5074758;28;20190;-66
2021/04/29 02:09:13;;;;;;;6.65;5.60;;;13.50;64.00;;;;;;5093407;28;20189;-66
2021/04/29 02:11:49;;;;;;;8.70;6.93;;;13.50;63.90;;;;;;5094854;28;20196;-66
2021/04/29 02:14:19;;;;;;;6.05;5.45;;;13.50;64.30;;;;;;5075098;28;20185;-66
2021/04/29 02:16:48;;;;;;;7.07;6.03;;;13.50;64.50;;;;;;5081736;28;20193;-66
2021/04/29 02:19:18;;;;;;;7.07;6.32;;;13.50;65.00;;;;;;5094555;28;20205;-67
2021/04/29 02:21:49;;;;;;;7.13;6.43;;;13.50;64.80;;;;;;5087176;28;20190;-68
2021/04/29 02:24:17;;;;;;;8.88;6.53;;;13.50;64.70;;;;;;5074693;28;20182;-68
2021/04/29 02:26:44;;;;;;;6.60;5.90;;;13.50;64.60;;;;;;5080209;28;20528;-66
2021/04/29 02:29:10;;;;;;;9.38;7.20;;;13.50;64.40;;;;;;5094621;28;20671;-66
2021/04/29 02:31:39;;;;;;;7.88;6.30;;;13.50;64.90;;;;;;5088962;28;20182;-66
2021/04/29 02:34:06;;;;;;;8.02;6.50;;;13.40;65.10;;;;;;5074125;28;20587;-68
2021/04/29 02:36:36;;;;;;;13.00;6.32;;;13.40;65.30;;;;;;5084486;28;20683;-67
2021/04/29 02:39:05;;;;;;;7.97;5.93;;;13.30;65.00;;;;;;5094150;28;20189;-66
2021/04/29 02:41:33;;;;;;;6.57;5.90;;;13.30;65.10;;;;;;5083546;28;20182;-66
2021/04/29 02:44:00;;;;;;;6.22;5.60;;;13.30;65.40;;;;;;5074064;28;20186;-67
2021/04/29 02:46:27;;;;;;;6.55;5.10;;;13.20;65.60;;;;;;5082460;28;20231;-66
2021/04/29 02:48:54;;;;;;;8.57;5.20;;;13.10;65.70;;;;;;5094102;28;20226;-66
2021/04/29 02:51:21;;;;;;;6.70;5.82;;;13.00;67.00;;;;;;5085948;28;20178;-65
2021/04/29 02:53:49;;;;;;;8.55;5.63;;;12.90;67.30;;;;;;5073905;28;20537;-66
2021/04/29 02:56:16;;;;;;;8.60;6.40;;;12.90;67.10;;;;;;5079929;28;20182;-65
2021/04/29 02:58:44;;;;;;;8.25;6.88;;;12.90;67.20;;;;;;5094052;28;20197;-66
2021/04/29 03:01:11;;;;;;;7.70;6.00;;;12.80;67.60;;;;;;5088102;28;20572;-66
2021/04/29 03:03:37;;;;;;;4.90;3.97;;;12.80;67.20;;;;;;5073408;28;20285;-67
2021/04/29 03:06:04;;;;;;;6.90;3.90;;;12.80;67.00;;;;;;5093930;28;20208;-66
2021/04/29 03:08:31;;;;;;;5.80;4.15;;;12.80;66.80;;;;;;5093938;28;20234;-65
2021/04/29 03:10:58;;;;;;;6.88;4.80;;;12.80;66.60;;;;;;5073887;28;20196;-66
2021/04/29 03:13:26;;;;;;;5.18;4.55;;;12.80;66.50;;;;;;5075927;28;20667;-65
2021/04/29 03:15:53;;;;;;;7.03;5.05;;;12.90;66.40;;;;;;5093639;28;20197;-66
2021/04/29 03:18:19;;;;;;;4.38;3.88;;;12.80;66.70;;;;;;5091736;28;20200;-65
2021/04/29 03:20:46;;;;;;;6.60;4.72;;;12.70;67.20;;;;;;5073354;28;20236;-66
2021/04/29 03:23:12;;;;;;;5.85;4.10;;;12.70;67.50;;;;;;5072963;28;20189;-66
2021/04/29 03:25:38;;;;;;;4.90;3.88;;;12.60;67.60;;;;;;5073024;28;20283;-66
2021/04/29 03:28:08;;;;;;;4.32;3.20;;;12.70;67.40;;;;;;5072953;28;20189;-66
2021/04/29 03:30:34;;;;;;;5.25;3.85;;;12.70;67.50;;;;;;5073567;28;20218;-66
2021/04/29 03:33:01;;;;;;;5.57;3.10;;;12.70;67.00;;;;;;5082302;28;20189;-65
2021/04/29 03:35:28;;;;;;;3.45;3.13;;;12.80;66.90;;;;;;5093408;28;20196;-66
2021/04/29 03:37:54;;;;;;;3.28;2.20;;;12.80;66.20;;;;;;5084701;28;20576;-70
2021/04/29 03:40:21;;;;;;;2.45;2.20;;;12.90;66.00;;;;;;5073183;28;20221;-67
2021/04/29 03:42:47;;;;;;;2.70;2.20;;;13.00;65.50;;;;;;5079018;28;20185;-67
2021/04/29 03:45:15;;;;;;;3.00;2.08;;;13.00;66.30;;;;;;5092989;28;20192;-66
2021/04/29 03:47:42;;;;;;;3.22;2.22;;;13.00;65.20;;;;;;5087310;28;20182;-66
2021/04/29 03:50:10;;;;;;;2.25;1.67;;;13.10;65.70;;;;;;5072694;28;20682;-67
2021/04/29 03:52:36;;;;;;;2.90;1.55;;;13.10;64.50;;;;;;5076538;28;20185;-66
2021/04/29 03:55:04;;;;;;;5.70;1.90;;;13.20;64.10;;;;;;5093148;28;20282;-66
2021/04/29 03:57:30;;;;;;;2.63;1.83;;;13.20;64.20;;;;;;5090363;28;20192;-66
2021/04/29 03:59:57;;;;;;;3.22;2.13;;;13.20;63.60;;;;;;5072503;28;20237;-66
2021/04/29 04:02:24;;;;;;;4.95;2.20;;;13.30;63.60;;;;;;5090960;28;20212;-66
2021/04/29 04:04:51;;;;;;;2.78;2.03;;;13.30;63.90;;;;;;5092860;28;20677;-66
2021/04/29 04:07:17;;;;;;;2.50;1.67;;;13.30;63.60;;;;;;5075494;28;20189;-66
2021/04/29 04:09:44;;;;;;;3.08;1.70;;;13.40;63.50;;;;;;5072659;28;20194;-67
2021/04/29 04:12:12;;;;;;;2.10;1.63;;;13.40;63.30;;;;;;5088325;28;20549;-66
2021/04/29 04:14:40;;;;;;;2.58;1.50;;;13.40;63.50;;;;;;5092835;28;20188;-66
2021/04/29 04:17:07;;;;;;;5.60;2.10;;;13.40;63.30;;;;;;5091015;28;20192;-66
2021/04/29 04:19:35;;;;;;;4.32;1.60;;;13.40;63.40;;;;;;5092714;28;20265;-68
2021/04/29 04:22:01;;;;;;;2.35;1.60;;;13.40;63.60;;;;;;5077232;28;20709;-66
2021/04/29 04:24:27;;;;;;;3.15;1.23;;;13.40;63.30;;;;;;5072951;28;20552;-66
2021/04/29 04:26:54;;;;;;;2.35;1.42;;;13.50;63.20;;;;;;5085897;28;20189;-66
2021/04/29 04:29:20;;;;;;;2.15;1.17;;;13.50;62.80;;;;;;5085359;28;20212;-66
2021/04/29 04:31:48;;;;;;;3.05;1.70;;;13.60;62.60;;;;;;5072519;28;20186;-67
2021/04/29 04:34:14;;;;;;;2.00;1.30;;;13.60;62.60;;;;;;5077673;28;20188;-66
2021/04/29 04:36:42;;;;;;;3.38;2.22;;;13.70;63.10;;;;;;5092618;28;20228;-67
2021/04/29 04:39:10;;;;;;;2.40;1.65;;;13.70;62.90;;;;;;5089723;28;20235;-69
2021/04/29 04:41:37;;;;;;;3.95;1.52;;;13.70;62.60;;;;;;5076550;28;20196;-66
2021/04/29 04:44:04;;;;;;;3.20;1.73;;;13.80;62.60;;;;;;5079484;28;20196;-65
2021/04/29 04:46:30;;;;;;;3.25;1.73;;;13.80;62.00;;;;;;5093486;28;20611;-67
2021/04/29 04:48:57;;;;;;;4.72;1.50;;;13.90;62.20;;;;;;5091271;28;20544;-67
2021/04/29 04:51:24;;;;;;;3.45;1.77;;;13.90;62.30;;;;;;5096341;28;20581;-67
2021/04/29 04:53:51;;;;;;;2.00;1.13;;;14.00;62.30;;;;;;5094280;28;20543;-66
2021/04/29 04:56:18;;;;;;;2.47;1.20;;;14.10;62.20;;;;;;5094071;28;20205;-66
2021/04/29 04:58:44;;;;;;;1.80;0.95;;;14.10;61.90;;;;;;5094171;28;20185;-68
2021/04/29 05:01:11;;;;;;;2.72;1.30;;;14.10;62.00;;;;;;5093823;28;20552;-67
2021/04/29 05:03:37;;;;;;;2.00;1.30;;;14.20;62.10;;;;;;5092383;28;20552;-66
2021/04/29 05:06:07;;;;;;;6.45;1.50;;;14.30;62.30;;;;;;5092156;28;20658;-67
2021/04/29 05:08:34;;;;;;;3.92;1.27;;;14.30;62.10;;;;;;5093041;28;20181;-66
2021/04/29 05:11:01;;;;;;;2.80;1.15;;;14.50;61.80;;;;;;5090812;28;20244;-67
2021/04/29 05:13:28;;;;;;;3.25;1.08;;;14.50;61.40;;;;;;5093905;28;20192;-66
2021/04/29 05:15:54;;;;;;;3.92;1.45;;;14.60;60.90;;;;;;5094260;28;20188;-67
2021/04/29 05:18:21;;;;;;;3.47;1.20;;;14.70;60.40;;;;;;5091909;28;20181;-66
2021/04/29 05:20:50;;;;;;;2.13;1.30;;;14.80;59.80;;;;;;5090540;28;20235;-67
2021/04/29 05:23:17;;;;;;;4.22;1.50;;;14.90;59.50;;;;;;5091286;28;20204;-66
2021/04/29 05:25:44;;;;;;;2.25;1.40;;;15.00;59.40;;;;;;5093348;28;20610;-66
2021/04/29 05:28:15;;;;;;;1.87;1.27;;;15.10;58.90;;;;;;5090871;28;20226;-68
2021/04/29 05:30:41;;;;;;;5.20;1.80;;;15.10;57.70;;;;;;5093621;28;20439;-66
2021/04/29 05:33:08;;;;;;;3.23;1.20;;;15.20;57.40;;;;;;5090859;28;20918;-66
2021/04/29 05:35:34;;;;;;;3.22;1.48;;;15.10;56.30;;;;;;5093979;28;20435;-66
2021/04/29 05:38:02;;;;;;;2.50;1.50;;;15.00;55.80;;;;;;5092779;28;20613;-67
2021/04/29 05:40:31;;;;;;;3.27;1.50;;;14.90;55.20;;;;;;5085338;28;20482;-67
2021/04/29 05:42:58;;;;;;;2.43;1.60;;;14.90;55.10;;;;;;5091504;28;20435;-66
2021/04/29 05:45:25;;;;;;;3.80;1.90;;;14.90;55.00;;;;;;5094185;28;20443;-66
2021/04/29 05:47:52;;;;;;;5.00;1.43;;;14.80;54.70;;;;;;5088349;28;20500;-67
2021/04/29 05:50:18;;;;;;;3.17;1.70;;;14.80;54.40;;;;;;5090804;28;20435;-69
2021/04/29 05:52:45;;;;;;;3.95;1.75;;;14.80;54.00;;;;;;5091931;28;20482;-66
2021/04/29 05:55:12;;;;;;;3.07;1.40;;;14.80;53.50;;;;;;5092419;28;20197;-66
2021/04/29 05:57:39;;;;;;;2.37;1.50;;;14.80;52.50;;;;;;5091879;28;20443;-69
2021/04/29 06:00:08;;;;;;;2.80;1.80;;;14.80;52.20;;;;;;5091422;28;20483;-66
2021/04/29 06:02:35;;;;;;;4.23;1.50;;;14.80;52.30;;;;;;5091997;28;20447;-68
2021/04/29 06:05:01;;;;;;;1.87;1.30;;;14.90;52.00;;;;;;5090813;28;20439;-66
2021/04/29 06:07:28;;;;;;;3.73;1.60;;;14.90;51.80;;;;;;5092091;28;20527;-66
2021/04/29 06:09:55;;;;;;;3.22;1.73;;;14.80;51.60;;;;;;5087666;28;20439;-67
2021/04/29 06:12:23;;;;;;;2.70;1.58;;;14.80;50.80;;;;;;5091719;28;20197;-66
2021/04/29 06:14:49;;;;;;;5.20;1.75;;;14.80;50.80;;;;;;5088716;28;20264;-66
2021/04/29 06:17:16;;;;;;;3.27;2.30;;;14.80;50.30;;;;;;5088541;28;20541;-66
2021/04/29 06:19:43;;;;;;;3.25;2.00;;;14.80;49.90;;;;;;5089058;28;20573;-66
2021/04/29 06:22:10;;;;;;;3.20;1.73;;;14.70;49.20;;;;;;5091419;28;20195;-67
2021/04/29 06:24:36;;;;;;;5.22;2.70;;;14.70;49.20;;;;;;5091904;28;20781;-66
2021/04/29 06:27:03;;;;;;;4.72;2.50;;;14.70;48.80;;;;;;5088528;28;20193;-69
2021/04/29 06:29:29;;;;;;;3.53;2.40;;;14.70;49.40;;;;;;5089013;28;20565;-71
2021/04/29 06:31:57;;;;;;;2.67;2.05;;;14.70;48.50;;;;;;5082999;28;20451;-66
2021/04/29 06:34:23;;;;;;;4.38;2.10;;;14.70;48.60;;;;;;5090748;28;20624;-64
2021/04/29 06:36:50;;;;;;;7.30;2.22;;;14.70;48.60;;;;;;5091226;28;20232;-67
2021/04/29 06:39:19;;;;;;;3.97;2.15;;;14.70;48.60;;;;;;5090915;28;20607;-66
2021/04/29 06:41:45;;;;;;;3.35;1.90;;;14.80;48.80;;;;;;5092169;28;20197;-66
2021/04/29 06:44:12;;;;;;;3.40;2.05;;;14.80;48.40;;;;;;5091106;28;20236;-67
2021/04/29 06:46:38;;;;;;;3.60;2.20;;;14.80;48.40;;;;;;5091326;28;20338;-68
2021/04/29 06:49:06;;;;;;;6.35;3.13;;;14.80;48.70;;;;;;5093250;28;20220;-66
2021/04/29 06:51:32;;;;;;;5.85;3.45;;;14.70;48.70;;;;;;5092831;28;20666;-67
2021/04/29 06:54:00;;;;;;;7.00;3.58;;;14.70;48.80;;;;;;5092397;28;20228;-68
2021/04/29 06:56:26;;;;;;;4.72;2.25;;;14.70;48.60;;;;;;5091899;28;20276;-67
2021/04/29 06:58:52;;;;;;;4.25;2.58;;;14.60;48.40;;;;;;5092882;28;20193;-66
2021/04/29 07:01:19;;;;;;;4.60;2.83;;;14.60;48.30;;;;;;5091639;28;20647;-67
2021/04/29 07:03:45;;;;;;;4.82;3.13;;;14.60;48.50;;;;;;5092913;28;20276;-67
2021/04/29 07:06:12;;;;;;;3.25;2.22;;;14.50;48.30;;;;;;5092549;28;20232;-68
2021/04/29 07:08:38;;;;;;;6.57;2.75;;;14.50;48.30;;;;;;5088102;28;20200;-65
2021/04/29 07:11:05;;;;;;;4.75;2.70;;;14.40;48.10;;;;;;5092448;28;20189;-69
2021/04/29 07:13:32;;;;;;;4.55;2.95;;;14.40;48.60;;;;;;5092888;28;20329;-67
2021/04/29 07:15:58;;;;;;;3.58;3.00;;;14.40;49.10;;;;;;5092376;28;20216;-70
2021/04/29 07:18:24;;;;;;;7.75;3.10;;;14.40;48.70;;;;;;5092566;28;20276;-67
2021/04/29 07:20:54;;;;;;;5.38;2.88;;;14.50;48.80;;;;;;5089948;28;20227;-67
2021/04/29 07:23:20;;;;;;;7.75;2.35;;;14.50;48.80;;;;;;5092819;28;20186;-67
2021/04/29 07:25:47;;;;;;;5.18;2.88;;;14.40;48.40;;;;;;5092468;28;20614;-68
2021/04/29 07:28:14;;;;;;;4.57;2.83;;;14.40;48.70;;;;;;5088161;28;20326;-67
2021/04/29 07:30:41;;;;;;;3.60;2.55;;;14.40;48.70;;;;;;5092510;28;20247;-67
2021/04/29 07:33:08;;;;;;;3.65;2.72;;;14.40;48.80;;;;;;5092521;28;20735;-67
2021/04/29 07:35:34;;;;;;;3.83;3.05;;;14.40;48.20;;;;;;5092123;28;20216;-67
2021/04/29 07:38:02;;;;;;;6.47;4.65;;;14.40;48.30;;;;;;5091996;28;20302;-65
2021/04/29 07:40:28;;;;;;;7.75;5.00;;;14.40;48.40;;;;;;5092412;28;20307;-65
2021/04/29 07:42:54;;;;;;;7.55;4.30;;;14.50;47.90;;;;;;5092197;28;20589;-65
2021/04/29 07:45:22;;;;;;;5.85;4.05;;;14.50;46.90;;;;;;5091910;28;20280;-66
2021/04/29 07:47:48;;;;;;;6.15;4.10;;;14.50;47.10;;;;;;5091826;28;20276;-66
2021/04/29 07:50:14;;;;;;;8.63;4.13;;;14.50;46.60;;;;;;5092073;28;20275;-66
2021/04/29 07:52:41;;;;;;;8.88;5.07;;;14.50;46.40;;;;;;5092236;28;20219;-66
2021/04/29 07:55:09;;;;;;;12.68;4.30;;;14.60;46.90;;;;;;5092106;28;20542;-67
2021/04/29 07:57:35;;;;;;;6.00;4.20;;;14.60;47.10;;;;;;5091724;28;20228;-67
2021/04/29 08:00:03;;;;;;;5.90;4.47;;;14.70;47.00;;;;;;5093406;28;20307;-65
2021/04/29 08:02:30;;;;;;;8.43;4.50;;;14.60;46.20;;;;;;5093640;28;20284;-65
2021/04/29 08:04:56;;;;;;;8.65;3.58;;;14.60;45.80;;;;;;5093605;28;20231;-65
2021/04/29 08:07:23;;;;;;;7.25;4.28;;;14.60;46.10;;;;;;5093138;28;20283;-65
2021/04/29 08:09:50;;;;;;;5.50;3.50;;;14.60;46.30;;;;;;5093411;28;20200;-65
2021/04/29 08:12:17;;;;;;;4.95;3.80;;;14.60;46.60;;;;;;5093152;28;20279;-65
2021/04/29 08:14:43;;;;;;;7.30;4.80;;;14.70;46.80;;;;;;5093393;28;20334;-68
2021/04/29 08:17:09;;;;;;;5.40;4.17;;;14.70;46.50;;;;;;5093122;28;20530;-66
2021/04/29 08:19:36;;;;;;;5.13;4.30;;;14.70;46.20;;;;;;5093295;28;20478;-65
2021/04/29 08:22:03;;;;;;;5.63;4.13;;;14.70;46.10;;;;;;5093390;28;20462;-66
2021/04/29 08:24:30;;;;;;;5.07;3.70;;;14.70;45.60;;;;;;5093456;28;20523;-65
2021/04/29 08:26:56;;;;;;;6.03;4.63;;;14.70;46.20;;;;;;5093140;28;20227;-65
2021/04/29 08:29:23;;;;;;;6.63;4.47;;;14.80;46.60;;;;;;5093195;28;20545;-65
2021/04/29 08:31:50;;;;;;;6.55;4.30;;;14.70;45.90;;;;;;5093304;28;20538;-65
2021/04/29 08:34:16;;;;;;;5.80;3.95;;;14.70;45.50;;;;;;5093373;28;20221;-65
2021/04/29 08:36:43;;;;;;;6.25;4.38;;;14.70;46.10;;;;;;5092752;28;20307;-66
2021/04/29 08:39:10;;;;;;;8.13;3.93;;;14.80;46.20;;;;;;5093258;28;20282;-65
2021/04/29 08:41:36;;;;;;;5.28;3.78;;;14.90;46.20;;;;;;5093122;28;20573;-65
2021/04/29 08:44:04;;;;;;;6.00;4.55;;;15.00;46.30;;;;;;5092817;28;20231;-66
2021/04/29 08:46:30;;;;;;;9.43;4.40;;;15.10;46.20;;;;;;5093068;28;20276;-65
2021/04/29 08:48:58;;;;;;;6.43;4.20;;;15.20;46.00;;;;;;5092836;28;20526;-65
2021/04/29 08:51:26;;;;;;;9.43;4.40;;;15.40;46.40;;;;;;5093006;28;20842;-65
2021/04/29 08:53:54;;;;;;;7.23;4.70;;;15.40;46.70;;;;;;5093158;28;20550;-65
2021/04/29 08:56:23;;;;;;;8.13;4.23;;;15.60;46.80;;;;;;5092910;28;20474;-65
2021/04/29 08:58:50;;;;;;;6.53;5.27;;;15.70;45.60;;;;;;5092915;28;20896;-65
2021/04/29 09:01:17;;;;;;;7.87;3.97;;;15.80;45.80;;;;;;5092583;28;20560;-65
2021/04/29 09:03:44;;;;;;;7.70;4.60;;;15.90;45.40;;;;;;5092916;28;20941;-65
2021/04/29 09:06:11;;;;;;;9.80;3.83;;;16.00;45.20;;;;;;5092836;28;20438;-66
2021/04/29 09:08:39;;;;;;;6.87;4.60;;;16.10;45.00;;;;;;5093267;28;20484;-65
2021/04/29 09:11:09;;;;;;;11.50;4.30;;;16.20;44.70;;;;;;5092867;28;20441;-65
2021/04/29 09:13:36;;;;;;;5.00;4.00;;;16.20;44.10;;;;;;5092803;28;20530;-65
2021/04/29 09:16:08;;;;;;;7.33;4.20;;;16.20;44.00;;;;;;5092875;28;20526;-65
2021/04/29 09:18:34;;;;;;;8.07;6.23;;;16.20;44.40;;;;;;5092978;28;20459;-65
2021/04/29 09:21:06;;;;;;;5.80;3.93;;;16.30;45.00;;;;;;5092694;28;20569;-65
2021/04/29 09:23:35;;;;;;;6.33;4.20;;;16.40;44.40;;;;;;5092913;28;20438;-65
2021/04/29 09:26:04;;;;;;;4.17;3.30;;;16.40;43.80;;;;;;5095934;28;20992;-65
2021/04/29 09:28:40;;;;;;;6.20;4.20;;;16.40;44.10;;;;;;5096037;28;20423;-65
2021/04/29 09:31:08;;;;;;;8.40;4.97;;;16.50;45.00;;;;;;5096607;28;20431;-65
2021/04/29 09:33:36;;;;;;;5.63;3.90;;;16.60;44.50;;;;;;5096141;28;20492;-67
2021/04/29 09:36:03;;;;;;;6.00;4.20;;;16.60;44.30;;;;;;5095062;28;20952;-65
2021/04/29 09:38:38;;;;;;;8.13;3.83;;;16.60;44.50;;;;;;5094865;28;20533;-65
2021/04/29 09:41:06;;;;;;;7.17;4.00;;;16.60;43.90;;;;;;5095678;28;20539;-66
2021/04/29 09:43:33;;;;;;;9.13;4.27;;;16.60;43.80;;;;;;5096057;28;20568;-65
2021/04/29 09:46:01;;;;;;;13.23;5.00;;;16.60;43.80;;;;;;5096150;28;20534;-66
2021/04/29 09:48:37;;;;;;;8.57;4.43;;;16.70;43.80;;;;;;5095647;28;20530;-66
2021/04/29 09:51:04;;;;;;;14.53;8.37;;;16.70;42.90;;;;;;5096222;28;20527;-66
2021/04/29 09:53:42;;;;;;;7.93;5.53;;;16.70;42.60;;;;;;5096245;28;20865;-65
2021/04/29 09:56:11;;;;;;;6.60;3.97;;;16.70;42.60;;;;;;5096010;28;20427;-66
2021/04/29 09:58:41;;;;;;;13.13;9.10;;;16.70;42.20;;;;;;5096000;28;20431;-67
2021/04/29 10:01:08;;;;;;;6.60;4.73;;;16.80;42.60;;;;;;5095536;28;20483;-66
2021/04/29 10:03:35;;;;;;;7.77;4.17;;;16.90;42.70;;;;;;5095963;28;20522;-67
2021/04/29 10:06:02;;;;;;;5.37;3.97;;;16.90;41.90;;;;;;5095646;28;20443;-66
2021/04/29 10:08:32;;;;;;;6.70;4.83;;;17.00;42.20;;;;;;5095849;28;20534;-66
2021/04/29 10:10:59;;;;;;;5.83;4.20;;;17.20;42.00;;;;;;5095749;28;20922;-66
2021/04/29 10:13:30;;;;;;;7.43;4.20;;;17.40;41.70;;;;;;5095593;28;20504;-66
2021/04/29 10:15:57;;;;;;;5.93;4.87;;;17.50;41.60;;;;;;5095258;28;20428;-66
2021/04/29 10:18:25;;;;;;;8.37;5.20;;;17.60;40.50;;;;;;5095340;28;20443;-66
2021/04/29 10:20:54;;;;;;;4.97;3.90;;;17.80;40.40;;;;;;5094891;28;20513;-66
2021/04/29 10:23:21;;;;;;;8.70;4.90;;;17.90;40.50;;;;;;5095413;28;20490;-66
2021/04/29 10:25:52;;;;;;;6.20;4.30;;;18.00;40.00;;;;;;5095433;28;20439;-66
2021/04/29 10:28:36;;;;;;;7.13;3.60;;;18.20;40.20;;;;;;5095215;28;20439;-65
2021/04/29 10:31:15;;;;;;;10.33;5.83;;;18.40;38.50;;;;;;5095102;28;20438;-66
2021/04/29 10:33:50;;;;;;;7.43;4.33;;;18.60;39.20;;;;;;5095285;28;20450;-66
2021/04/29 10:36:17;;;;;;;10.90;5.37;;;18.90;38.20;;;;;;5094743;28;20885;-66
2021/04/29 10:38:44;;;;;;;13.43;12.07;;;19.10;39.10;;;;;;5095038;28;20533;-66
2021/04/29 10:41:19;;;;;;;17.17;15.63;;;19.40;39.50;;;;;;5094966;28;20561;-67
2021/04/29 10:43:47;;;;;;;5.80;4.20;;;19.70;39.10;;;;;;5095008;28;20913;-66
2021/04/29 10:46:28;;;;;;;6.77;3.67;;;19.80;37.30;;;;;;5094923;28;20484;-66
2021/04/29 10:48:57;;;;;;;4.00;3.13;;;20.00;37.80;;;;;;5094981;28;20852;-66
2021/04/29 10:51:31;;;;;;;4.63;3.57;;;20.10;36.30;;;;;;5094735;28;20533;-66
2021/04/29 10:54:09;;;;;;;4.83;3.10;;;20.20;36.80;;;;;;5094732;28;20473;-66
2021/04/29 10:56:35;;;;;;;6.03;3.90;;;20.20;35.70;;;;;;5094905;28;20888;-66
2021/04/29 10:59:08;;;;;;;4.03;2.63;;;20.10;35.30;;;;;;5094820;28;20533;-66
2021/04/29 11:01:40;;;;;;;4.67;2.60;;;20.10;36.00;;;;;;5094583;28;20478;-67
2021/04/29 11:04:16;;;;;;;6.23;2.60;;;20.20;35.00;;;;;;5094749;28;20913;-66
2021/04/29 11:06:44;;;;;;;7.30;3.20;;;20.40;34.70;;;;;;5094699;28;20470;-67
2021/04/29 11:09:18;;;;;;;6.17;2.67;;;20.80;35.40;;;;;;5094312;28;20526;-69
2021/04/29 11:11:45;;;;;;;7.43;4.33;;;21.30;34.70;;;;;;5094455;28;20813;-66
2021/04/29 11:14:12;;;;;;;4.57;2.73;;;21.70;34.00;;;;;;5094019;28;20514;-66
2021/04/29 11:16:46;;;;;;;4.50;2.53;;;21.90;33.00;;;;;;5094172;28;20526;-66
2021/04/29 11:19:36;;;;;;;6.03;2.50;;;22.00;31.50;;;;;;5094095;28;20494;-67
2021/04/29 11:22:03;;;;;;;5.20;2.70;;;22.10;32.20;;;;;;5090617;28;20466;-65
2021/04/29 11:24:38;;;;;;;4.87;3.33;;;22.20;32.90;;;;;;5093920;28;20517;-65
2021/04/29 11:27:05;;;;;;;4.93;3.10;;;22.20;32.90;;;;;;5094027;28;20458;-69
2021/04/29 11:29:39;;;;;;;5.13;3.80;;;22.10;33.00;;;;;;5092601;28;20439;-65
2021/04/29 11:32:06;;;;;;;5.00;3.97;;;22.00;32.00;;;;;;5073387;28;20527;-66
2021/04/29 11:34:44;;;;;;;6.37;4.90;;;22.00;31.30;;;;;;5073517;28;20934;-65
2021/04/29 11:37:11;;;;;;;6.13;3.80;;;22.00;32.00;;;;;;5073426;28;20542;-66
2021/04/29 11:39:38;;;;;;;5.27;2.80;;;22.10;31.90;;;;;;5073516;28;20989;-67
2021/04/29 11:42:05;;;;;;;4.80;2.77;;;22.10;31.40;;;;;;5073692;28;20481;-67
2021/04/29 11:44:33;;;;;;;4.20;2.97;;;22.00;30.40;;;;;;5073699;28;20428;-66
2021/04/29 11:47:13;;;;;;;7.73;3.13;;;21.90;30.50;;;;;;5073139;28;20436;-65
2021/04/29 11:49:39;;;;;;;6.60;3.47;;;21.80;31.20;;;;;;5073563;28;20523;-68
2021/04/29 11:52:06;;;;;;;5.03;3.03;;;21.70;31.50;;;;;;5073657;28;20993;-66
2021/04/29 11:54:32;;;;;;;4.70;2.73;;;21.50;31.50;;;;;;5073236;28;20961;-67
2021/04/29 11:57:02;;;;;;;4.97;3.80;;;21.30;31.20;;;;;;5073432;28;20479;-66
2021/04/29 11:59:31;;;;;;;4.77;3.27;;;21.20;31.50;;;;;;5072999;28;20454;-66
2021/04/29 12:01:59;;;;;;;4.47;3.00;;;20.90;31.20;;;;;;5073255;28;20501;-66
2021/04/29 12:04:26;;;;;;;6.00;3.00;;;20.80;31.50;;;;;;5073111;28;20440;-66
2021/04/29 12:06:53;;;;;;;8.00;3.30;;;20.70;31.30;;;;;;5073313;28;20455;-66
2021/04/29 12:09:22;;;;;;;5.90;3.43;;;20.70;32.10;;;;;;5073162;28;20482;-66
2021/04/29 12:11:49;;;;;;;5.53;3.47;;;20.60;32.00;;;;;;5073088;28;20530;-66
2021/04/29 12:14:21;;;;;;;4.90;4.00;;;20.50;32.00;;;;;;5073212;28;20523;-66
2021/04/29 12:16:48;;;;;;;26.73;15.70;;;20.40;32.30;;;;;;5073272;28;20432;-66
2021/04/29 12:19:15;;;;;;;19.80;12.50;;;20.30;32.60;;;;;;5073228;28;20478;-65
2021/04/29 12:21:44;;;;;;;26.10;17.33;;;20.30;32.40;;;;;;5072885;28;20574;-65
2021/04/29 12:24:11;;;;;;;5.83;4.47;;;20.20;32.70;;;;;;5073057;28;20589;-67
2021/04/29 12:26:40;;;;;;;18.27;12.30;;;20.10;32.70;;;;;;5076371;28;20435;-66
2021/04/29 12:29:07;;;;;;;21.93;15.77;;;20.20;33.30;;;;;;5087475;28;20450;-66
2021/04/29 12:31:35;;;;;;;8.83;6.03;;;20.20;33.00;;;;;;5091237;28;20466;-69
2021/04/29 12:34:05;;;;;;;75.87;45.27;;;20.10;32.70;;;;;;5091598;28;20844;-67
2021/04/29 12:36:34;;;;;;;31.90;21.63;;;20.00;33.60;;;;;;5090840;28;20463;-67
2021/04/29 12:39:12;;;;;;;21.43;13.90;;;19.90;33.00;;;;;;5091486;28;20529;-67
2021/04/29 12:41:39;;;;;;;33.87;20.30;;;19.80;33.40;;;;;;5091374;28;20478;-68
2021/04/29 12:44:06;;;;;;;23.53;16.73;;;19.60;32.90;;;;;;5087595;28;20454;-69
2021/04/29 12:46:34;;;;;;;22.00;13.13;;;19.50;33.10;;;;;;5091534;28;20487;-67
2021/04/29 12:49:01;;;;;;;14.97;10.17;;;19.40;33.40;;;;;;5091386;28;20517;-67